Airfield :
LOGIN :

Register | Disclaimer

   EN    FR    IT 

 










Legend :    VFR   Marginal VFR   IFR   Intensive IFR   Very Intensive IFR
Visi :
Ceiling :
>= 8 km
>= 3000ft
5 to 8 km
1000 to 3000 ft
1500m to 5 km
500 to 1000 ft
800 to 1500m
200 to 500 ft
< 800m
< 200 ft
Symbols :   Thunderstorms  Fog  Heavy snow  Heavy precipitations  Wind > 20 kt
SIGMETs :     Misc.  Thunderstorms  Icing  Turbulence  Mountain Waves  Volcanic Ashes






- Airport Elevation : 352 ft
- IATA code : ARW


LRAR - Arad International

CURRENT METAR :
  • 281700Z 23002KT 5000 BR BKN039 17/17 Q1019

EXPIRED METARs :
  • 281630Z 27003KT 220V290 5000 BR BKN037 17/16 Q1019
  • 281600Z 18001KT 4000 BR FEW042 18/17 Q1018
  • 281530Z 14001KT 7000 FEW012 18/16 Q1018
  • 281500Z VRB01KT 8000 FEW008 19/16 Q1018
  • 281430Z 00000KT 7000 FEW010 SCT024 18/17 Q1018

TAF TAF LRAR
Valid from the 28 at 15:00 until the 29 at 00:00 UTC


281400Z 2815/2900 VRB04KT 7000 SCT015 BKN030
BECMG 2818/2820 3000 BR BKN010 BKN025
BECMG 2821/2823 1500 BR BKN005 BKN020



MET'MAP, your aeronautical weather chart ! - Copyright ORBIFLY December 2007 - Disclaimer

ORBIFLY MET'MAP TEAM :

Programming & Development : Alexandra Zaïnal
Concept & original design : Baudouin d'Aumeries
Assistance for programming : Marc-Olivier Méhu
Technical & hardware support : Manuel Goepfert

Contact : metmap@orbifly.com




SOURCES & CREDITS :

   NOAA